sensor_id;sensor_type;location;lat;lon;timestamp;P1;durP1;ratioP1;P2;durP2;ratioP2
4873;SDS011;2451;49.970;9.068;2023-04-15T00:00:25;8.98;;;5.90;;
4873;SDS011;2451;49.970;9.068;2023-04-15T00:02:51;9.48;;;5.90;;
4873;SDS011;2451;49.970;9.068;2023-04-15T00:05:17;9.73;;;6.10;;
4873;SDS011;2451;49.970;9.068;2023-04-15T00:07:42;9.18;;;6.00;;
4873;SDS011;2451;49.970;9.068;2023-04-15T00:10:09;9.65;;;5.80;;
4873;SDS011;2451;49.970;9.068;2023-04-15T00:12:35;9.82;;;5.90;;
4873;SDS011;2451;49.970;9.068;2023-04-15T00:15:01;10.95;;;6.40;;
4873;SDS011;2451;49.970;9.068;2023-04-15T00:17:26;9.20;;;6.07;;
4873;SDS011;2451;49.970;9.068;2023-04-15T00:19:52;8.40;;;5.53;;
4873;SDS011;2451;49.970;9.068;2023-04-15T00:22:18;10.40;;;5.70;;
4873;SDS011;2451;49.970;9.068;2023-04-15T00:24:43;9.68;;;5.85;;
4873;SDS011;2451;49.970;9.068;2023-04-15T00:27:09;10.43;;;5.85;;
4873;SDS011;2451;49.970;9.068;2023-04-15T00:29:35;8.13;;;5.78;;
4873;SDS011;2451;49.970;9.068;2023-04-15T00:32:01;9.45;;;5.90;;
4873;SDS011;2451;49.970;9.068;2023-04-15T00:34:27;8.23;;;5.82;;
4873;SDS011;2451;49.970;9.068;2023-04-15T00:36:52;10.63;;;6.22;;
4873;SDS011;2451;49.970;9.068;2023-04-15T00:39:18;8.60;;;5.75;;
4873;SDS011;2451;49.970;9.068;2023-04-15T00:41:44;9.90;;;5.88;;
4873;SDS011;2451;49.970;9.068;2023-04-15T00:44:10;10.27;;;5.90;;
4873;SDS011;2451;49.970;9.068;2023-04-15T00:46:36;8.63;;;5.80;;
4873;SDS011;2451;49.970;9.068;2023-04-15T00:49:03;8.73;;;6.40;;
4873;SDS011;2451;49.970;9.068;2023-04-15T00:51:30;8.40;;;5.93;;
4873;SDS011;2451;49.970;9.068;2023-04-15T00:53:57;8.88;;;5.63;;
4873;SDS011;2451;49.970;9.068;2023-04-15T00:56:24;10.25;;;6.40;;
4873;SDS011;2451;49.970;9.068;2023-04-15T00:58:51;10.55;;;6.07;;
4873;SDS011;2451;49.970;9.068;2023-04-15T01:01:20;9.27;;;6.38;;
4873;SDS011;2451;49.970;9.068;2023-04-15T01:03:46;8.75;;;6.10;;
4873;SDS011;2451;49.970;9.068;2023-04-15T01:06:14;10.02;;;6.35;;
4873;SDS011;2451;49.970;9.068;2023-04-15T01:08:40;11.20;;;6.40;;
4873;SDS011;2451;49.970;9.068;2023-04-15T01:11:06;10.45;;;6.07;;
4873;SDS011;2451;49.970;9.068;2023-04-15T01:13:33;10.55;;;6.28;;
4873;SDS011;2451;49.970;9.068;2023-04-15T01:16:00;10.60;;;6.38;;
4873;SDS011;2451;49.970;9.068;2023-04-15T01:18:27;9.57;;;6.25;;
4873;SDS011;2451;49.970;9.068;2023-04-15T01:20:53;12.80;;;6.72;;
4873;SDS011;2451;49.970;9.068;2023-04-15T01:23:20;10.07;;;6.05;;
4873;SDS011;2451;49.970;9.068;2023-04-15T01:25:47;9.57;;;6.32;;
4873;SDS011;2451;49.970;9.068;2023-04-15T01:28:13;11.55;;;6.10;;
4873;SDS011;2451;49.970;9.068;2023-04-15T01:30:40;9.27;;;6.75;;
4873;SDS011;2451;49.970;9.068;2023-04-15T01:33:05;9.88;;;6.30;;
4873;SDS011;2451;49.970;9.068;2023-04-15T01:35:31;10.15;;;6.78;;
4873;SDS011;2451;49.970;9.068;2023-04-15T01:37:59;10.02;;;6.90;;
4873;SDS011;2451;49.970;9.068;2023-04-15T01:40:30;10.07;;;6.45;;
4873;SDS011;2451;49.970;9.068;2023-04-15T01:42:55;10.73;;;6.75;;
4873;SDS011;2451;49.970;9.068;2023-04-15T01:45:21;10.43;;;6.32;;
4873;SDS011;2451;49.970;9.068;2023-04-15T01:47:47;8.65;;;5.97;;
4873;SDS011;2451;49.970;9.068;2023-04-15T01:50:13;10.70;;;7.20;;
4873;SDS011;2451;49.970;9.068;2023-04-15T01:52:39;12.43;;;6.85;;
4873;SDS011;2451;49.970;9.068;2023-04-15T01:55:05;10.13;;;6.65;;
4873;SDS011;2451;49.970;9.068;2023-04-15T01:57:32;10.23;;;5.90;;
4873;SDS011;2451;49.970;9.068;2023-04-15T01:59:57;10.07;;;6.55;;
4873;SDS011;2451;49.970;9.068;2023-04-15T02:02:22;9.60;;;6.25;;
4873;SDS011;2451;49.970;9.068;2023-04-15T02:04:48;10.77;;;6.93;;
4873;SDS011;2451;49.970;9.068;2023-04-15T02:07:14;10.20;;;6.20;;
4873;SDS011;2451;49.970;9.068;2023-04-15T02:09:39;13.10;;;6.97;;
4873;SDS011;2451;49.970;9.068;2023-04-15T02:12:05;9.75;;;6.18;;
4873;SDS011;2451;49.970;9.068;2023-04-15T02:14:31;9.55;;;5.88;;
4873;SDS011;2451;49.970;9.068;2023-04-15T02:16:56;9.50;;;6.13;;
4873;SDS011;2451;49.970;9.068;2023-04-15T02:19:22;9.98;;;6.10;;
4873;SDS011;2451;49.970;9.068;2023-04-15T02:21:47;9.57;;;6.25;;
4873;SDS011;2451;49.970;9.068;2023-04-15T02:24:13;11.20;;;6.40;;
4873;SDS011;2451;49.970;9.068;2023-04-15T02:26:38;9.80;;;6.18;;
4873;SDS011;2451;49.970;9.068;2023-04-15T02:29:04;9.05;;;6.40;;
4873;SDS011;2451;49.970;9.068;2023-04-15T02:31:30;10.52;;;6.45;;
4873;SDS011;2451;49.970;9.068;2023-04-15T02:34:00;11.70;;;6.75;;
4873;SDS011;2451;49.970;9.068;2023-04-15T02:36:28;10.40;;;7.00;;
4873;SDS011;2451;49.970;9.068;2023-04-15T02:38:55;10.90;;;6.38;;
4873;SDS011;2451;49.970;9.068;2023-04-15T02:41:21;10.20;;;6.40;;
4873;SDS011;2451;49.970;9.068;2023-04-15T02:43:51;12.15;;;6.63;;
4873;SDS011;2451;49.970;9.068;2023-04-15T02:46:16;11.50;;;6.63;;
4873;SDS011;2451;49.970;9.068;2023-04-15T02:48:42;9.25;;;6.07;;
4873;SDS011;2451;49.970;9.068;2023-04-15T02:51:13;10.70;;;6.60;;
4873;SDS011;2451;49.970;9.068;2023-04-15T02:53:43;8.60;;;5.72;;
4873;SDS011;2451;49.970;9.068;2023-04-15T02:56:10;10.88;;;6.22;;
4873;SDS011;2451;49.970;9.068;2023-04-15T02:58:36;10.30;;;6.40;;
4873;SDS011;2451;49.970;9.068;2023-04-15T03:01:02;10.77;;;6.53;;
4873;SDS011;2451;49.970;9.068;2023-04-15T03:03:27;9.45;;;6.05;;
4873;SDS011;2451;49.970;9.068;2023-04-15T03:05:53;10.82;;;6.18;;
4873;SDS011;2451;49.970;9.068;2023-04-15T03:08:18;10.20;;;6.13;;
4873;SDS011;2451;49.970;9.068;2023-04-15T03:10:47;8.45;;;6.20;;
4873;SDS011;2451;49.970;9.068;2023-04-15T03:13:12;8.38;;;6.07;;
4873;SDS011;2451;49.970;9.068;2023-04-15T03:15:38;8.82;;;6.28;;
4873;SDS011;2451;49.970;9.068;2023-04-15T03:18:03;11.38;;;6.07;;
4873;SDS011;2451;49.970;9.068;2023-04-15T03:20:29;11.88;;;6.22;;
4873;SDS011;2451;49.970;9.068;2023-04-15T03:22:55;10.07;;;6.15;;
4873;SDS011;2451;49.970;9.068;2023-04-15T03:25:20;12.20;;;6.72;;
4873;SDS011;2451;49.970;9.068;2023-04-15T03:27:46;8.65;;;6.07;;
4873;SDS011;2451;49.970;9.068;2023-04-15T03:30:12;10.60;;;6.07;;
4873;SDS011;2451;49.970;9.068;2023-04-15T03:32:38;9.38;;;6.13;;
4873;SDS011;2451;49.970;9.068;2023-04-15T03:35:03;9.15;;;6.50;;
4873;SDS011;2451;49.970;9.068;2023-04-15T03:37:30;15.00;;;6.45;;
4873;SDS011;2451;49.970;9.068;2023-04-15T03:39:55;9.32;;;6.20;;
4873;SDS011;2451;49.970;9.068;2023-04-15T03:42:21;10.25;;;6.38;;
4873;SDS011;2451;49.970;9.068;2023-04-15T03:44:47;10.73;;;6.32;;
4873;SDS011;2451;49.970;9.068;2023-04-15T03:47:12;11.00;;;6.47;;
4873;SDS011;2451;49.970;9.068;2023-04-15T03:49:38;9.20;;;6.32;;
4873;SDS011;2451;49.970;9.068;2023-04-15T03:52:04;12.52;;;6.78;;
4873;SDS011;2451;49.970;9.068;2023-04-15T03:54:30;10.65;;;6.60;;
4873;SDS011;2451;49.970;9.068;2023-04-15T03:56:55;9.93;;;6.28;;
4873;SDS011;2451;49.970;9.068;2023-04-15T03:59:21;11.05;;;6.70;;
4873;SDS011;2451;49.970;9.068;2023-04-15T04:01:47;9.00;;;6.30;;
4873;SDS011;2451;49.970;9.068;2023-04-15T04:04:12;9.65;;;6.50;;
4873;SDS011;2451;49.970;9.068;2023-04-15T04:06:38;9.55;;;6.15;;
4873;SDS011;2451;49.970;9.068;2023-04-15T04:09:03;10.35;;;6.50;;
4873;SDS011;2451;49.970;9.068;2023-04-15T04:11:29;11.60;;;6.38;;
4873;SDS011;2451;49.970;9.068;2023-04-15T04:13:55;10.02;;;6.30;;
4873;SDS011;2451;49.970;9.068;2023-04-15T04:16:21;10.73;;;6.50;;
4873;SDS011;2451;49.970;9.068;2023-04-15T04:18:46;11.68;;;6.53;;
4873;SDS011;2451;49.970;9.068;2023-04-15T04:21:12;12.95;;;7.55;;
4873;SDS011;2451;49.970;9.068;2023-04-15T04:23:37;12.13;;;7.80;;
4873;SDS011;2451;49.970;9.068;2023-04-15T04:26:03;12.30;;;7.20;;
4873;SDS011;2451;49.970;9.068;2023-04-15T04:28:28;11.63;;;7.63;;
4873;SDS011;2451;49.970;9.068;2023-04-15T04:30:54;11.77;;;7.70;;
4873;SDS011;2451;49.970;9.068;2023-04-15T04:33:20;12.05;;;6.90;;
4873;SDS011;2451;49.970;9.068;2023-04-15T04:35:45;10.52;;;6.30;;
4873;SDS011;2451;49.970;9.068;2023-04-15T04:38:11;11.18;;;6.70;;
4873;SDS011;2451;49.970;9.068;2023-04-15T04:40:37;11.55;;;6.97;;
4873;SDS011;2451;49.970;9.068;2023-04-15T04:43:02;11.18;;;7.13;;
4873;SDS011;2451;49.970;9.068;2023-04-15T04:45:28;10.18;;;6.70;;
4873;SDS011;2451;49.970;9.068;2023-04-15T04:47:54;12.60;;;6.85;;
4873;SDS011;2451;49.970;9.068;2023-04-15T04:50:19;9.13;;;6.47;;
4873;SDS011;2451;49.970;9.068;2023-04-15T04:52:45;10.23;;;6.85;;
4873;SDS011;2451;49.970;9.068;2023-04-15T04:55:10;11.23;;;6.93;;
4873;SDS011;2451;49.970;9.068;2023-04-15T04:57:36;9.85;;;6.90;;
4873;SDS011;2451;49.970;9.068;2023-04-15T05:00:03;10.75;;;6.95;;
4873;SDS011;2451;49.970;9.068;2023-04-15T05:02:30;9.35;;;6.40;;
4873;SDS011;2451;49.970;9.068;2023-04-15T05:04:56;12.68;;;6.53;;
4873;SDS011;2451;49.970;9.068;2023-04-15T05:07:21;9.98;;;6.50;;
4873;SDS011;2451;49.970;9.068;2023-04-15T05:09:47;11.20;;;6.82;;
4873;SDS011;2451;49.970;9.068;2023-04-15T05:12:13;8.77;;;6.18;;
4873;SDS011;2451;49.970;9.068;2023-04-15T05:14:42;11.02;;;6.68;;
4873;SDS011;2451;49.970;9.068;2023-04-15T05:17:08;12.60;;;6.78;;
4873;SDS011;2451;49.970;9.068;2023-04-15T05:19:33;10.48;;;6.43;;
4873;SDS011;2451;49.970;9.068;2023-04-15T05:21:59;9.07;;;6.22;;
4873;SDS011;2451;49.970;9.068;2023-04-15T05:24:25;12.35;;;6.55;;
4873;SDS011;2451;49.970;9.068;2023-04-15T05:26:51;9.90;;;6.38;;
4873;SDS011;2451;49.970;9.068;2023-04-15T05:29:16;10.23;;;6.68;;
4873;SDS011;2451;49.970;9.068;2023-04-15T05:31:42;9.77;;;6.55;;
4873;SDS011;2451;49.970;9.068;2023-04-15T05:34:08;12.30;;;6.40;;
4873;SDS011;2451;49.970;9.068;2023-04-15T05:36:34;10.38;;;6.70;;
4873;SDS011;2451;49.970;9.068;2023-04-15T05:38:59;9.43;;;6.35;;
4873;SDS011;2451;49.970;9.068;2023-04-15T05:41:25;9.68;;;6.60;;
4873;SDS011;2451;49.970;9.068;2023-04-15T05:43:51;10.40;;;7.40;;
4873;SDS011;2451;49.970;9.068;2023-04-15T05:46:16;10.63;;;7.45;;
4873;SDS011;2451;49.970;9.068;2023-04-15T05:48:42;10.80;;;7.30;;
4873;SDS011;2451;49.970;9.068;2023-04-15T05:51:07;13.30;;;8.90;;
4873;SDS011;2451;49.970;9.068;2023-04-15T05:53:33;15.70;;;9.10;;
4873;SDS011;2451;49.970;9.068;2023-04-15T05:55:59;15.02;;;9.60;;
4873;SDS011;2451;49.970;9.068;2023-04-15T05:58:25;25.58;;;17.67;;
4873;SDS011;2451;49.970;9.068;2023-04-15T06:00:51;23.95;;;16.90;;
4873;SDS011;2451;49.970;9.068;2023-04-15T06:03:16;21.77;;;12.32;;
4873;SDS011;2451;49.970;9.068;2023-04-15T06:05:42;17.42;;;11.10;;
4873;SDS011;2451;49.970;9.068;2023-04-15T06:08:08;16.80;;;10.93;;
4873;SDS011;2451;49.970;9.068;2023-04-15T06:10:35;14.70;;;9.68;;
4873;SDS011;2451;49.970;9.068;2023-04-15T06:13:01;11.75;;;8.48;;
4873;SDS011;2451;49.970;9.068;2023-04-15T06:15:28;13.75;;;9.60;;
4873;SDS011;2451;49.970;9.068;2023-04-15T06:17:53;15.05;;;8.77;;
4873;SDS011;2451;49.970;9.068;2023-04-15T06:20:19;12.75;;;8.45;;
4873;SDS011;2451;49.970;9.068;2023-04-15T06:22:44;13.15;;;8.52;;
4873;SDS011;2451;49.970;9.068;2023-04-15T06:25:10;14.43;;;8.18;;
4873;SDS011;2451;49.970;9.068;2023-04-15T06:27:36;10.13;;;6.85;;
4873;SDS011;2451;49.970;9.068;2023-04-15T06:30:01;12.90;;;6.90;;
4873;SDS011;2451;49.970;9.068;2023-04-15T06:32:27;9.85;;;7.00;;
4873;SDS011;2451;49.970;9.068;2023-04-15T06:34:53;9.73;;;6.25;;
4873;SDS011;2451;49.970;9.068;2023-04-15T06:37:18;11.40;;;7.13;;
4873;SDS011;2451;49.970;9.068;2023-04-15T06:39:44;11.20;;;7.35;;
4873;SDS011;2451;49.970;9.068;2023-04-15T06:42:10;13.07;;;7.38;;
4873;SDS011;2451;49.970;9.068;2023-04-15T06:44:36;12.15;;;7.32;;
4873;SDS011;2451;49.970;9.068;2023-04-15T06:47:02;10.38;;;7.13;;
4873;SDS011;2451;49.970;9.068;2023-04-15T06:49:28;10.82;;;7.47;;
4873;SDS011;2451;49.970;9.068;2023-04-15T06:51:53;9.40;;;6.72;;
4873;SDS011;2451;49.970;9.068;2023-04-15T06:54:19;9.27;;;6.93;;
4873;SDS011;2451;49.970;9.068;2023-04-15T06:56:45;9.65;;;7.07;;
4873;SDS011;2451;49.970;9.068;2023-04-15T06:59:11;11.38;;;6.90;;
4873;SDS011;2451;49.970;9.068;2023-04-15T07:01:38;11.57;;;6.72;;
4873;SDS011;2451;49.970;9.068;2023-04-15T07:04:05;11.60;;;6.47;;
4873;SDS011;2451;49.970;9.068;2023-04-15T07:06:30;10.43;;;7.20;;
4873;SDS011;2451;49.970;9.068;2023-04-15T07:08:56;9.65;;;7.35;;
4873;SDS011;2451;49.970;9.068;2023-04-15T07:11:22;10.93;;;6.90;;
4873;SDS011;2451;49.970;9.068;2023-04-15T07:13:49;8.90;;;6.38;;
4873;SDS011;2451;49.970;9.068;2023-04-15T07:16:15;9.65;;;6.90;;
4873;SDS011;2451;49.970;9.068;2023-04-15T07:18:41;9.07;;;6.72;;
4873;SDS011;2451;49.970;9.068;2023-04-15T07:21:07;10.70;;;6.38;;
4873;SDS011;2451;49.970;9.068;2023-04-15T07:23:33;16.67;;;7.45;;
4873;SDS011;2451;49.970;9.068;2023-04-15T07:25:58;13.93;;;7.43;;
4873;SDS011;2451;49.970;9.068;2023-04-15T07:28:24;13.85;;;7.43;;
4873;SDS011;2451;49.970;9.068;2023-04-15T07:30:50;10.80;;;6.65;;
4873;SDS011;2451;49.970;9.068;2023-04-15T07:33:16;10.10;;;7.00;;
4873;SDS011;2451;49.970;9.068;2023-04-15T07:35:41;9.73;;;6.78;;
4873;SDS011;2451;49.970;9.068;2023-04-15T07:38:07;9.52;;;6.72;;
4873;SDS011;2451;49.970;9.068;2023-04-15T07:40:33;11.35;;;7.20;;
4873;SDS011;2451;49.970;9.068;2023-04-15T07:42:58;10.25;;;6.93;;
4873;SDS011;2451;49.970;9.068;2023-04-15T07:45:24;12.02;;;7.65;;
4873;SDS011;2451;49.970;9.068;2023-04-15T07:47:49;10.35;;;7.03;;
4873;SDS011;2451;49.970;9.068;2023-04-15T07:50:15;10.35;;;7.65;;
4873;SDS011;2451;49.970;9.068;2023-04-15T07:52:41;11.10;;;7.38;;
4873;SDS011;2451;49.970;9.068;2023-04-15T07:55:08;11.57;;;7.45;;
4873;SDS011;2451;49.970;9.068;2023-04-15T07:57:34;12.77;;;8.07;;
4873;SDS011;2451;49.970;9.068;2023-04-15T08:00:00;17.75;;;7.80;;
4873;SDS011;2451;49.970;9.068;2023-04-15T08:02:26;14.48;;;8.40;;
4873;SDS011;2451;49.970;9.068;2023-04-15T08:04:52;13.25;;;7.55;;
4873;SDS011;2451;49.970;9.068;2023-04-15T08:07:18;16.67;;;7.95;;
4873;SDS011;2451;49.970;9.068;2023-04-15T08:09:43;33.78;;;9.45;;
4873;SDS011;2451;49.970;9.068;2023-04-15T08:12:10;15.02;;;7.82;;
4873;SDS011;2451;49.970;9.068;2023-04-15T08:14:37;19.17;;;8.40;;
4873;SDS011;2451;49.970;9.068;2023-04-15T08:17:03;19.85;;;7.82;;
4873;SDS011;2451;49.970;9.068;2023-04-15T08:19:29;20.52;;;8.25;;
4873;SDS011;2451;49.970;9.068;2023-04-15T08:21:55;25.85;;;8.10;;
4873;SDS011;2451;49.970;9.068;2023-04-15T08:24:21;15.07;;;8.10;;
4873;SDS011;2451;49.970;9.068;2023-04-15T08:26:48;11.43;;;7.63;;
4873;SDS011;2451;49.970;9.068;2023-04-15T08:29:13;13.10;;;8.30;;
4873;SDS011;2451;49.970;9.068;2023-04-15T08:31:39;12.30;;;8.38;;
4873;SDS011;2451;49.970;9.068;2023-04-15T08:34:04;10.60;;;8.10;;
4873;SDS011;2451;49.970;9.068;2023-04-15T08:36:30;12.65;;;7.85;;
4873;SDS011;2451;49.970;9.068;2023-04-15T08:38:56;12.10;;;8.52;;
4873;SDS011;2451;49.970;9.068;2023-04-15T08:41:23;11.88;;;8.13;;
4873;SDS011;2451;49.970;9.068;2023-04-15T08:43:53;13.05;;;8.40;;
4873;SDS011;2451;49.970;9.068;2023-04-15T08:46:22;12.35;;;8.18;;
4873;SDS011;2451;49.970;9.068;2023-04-15T08:48:48;10.60;;;7.30;;
4873;SDS011;2451;49.970;9.068;2023-04-15T08:51:15;10.27;;;7.72;;
4873;SDS011;2451;49.970;9.068;2023-04-15T08:53:44;13.25;;;7.97;;
4873;SDS011;2451;49.970;9.068;2023-04-15T08:56:11;12.50;;;7.90;;
4873;SDS011;2451;49.970;9.068;2023-04-15T08:58:39;10.90;;;7.88;;
4873;SDS011;2451;49.970;9.068;2023-04-15T09:01:06;11.32;;;7.95;;
4873;SDS011;2451;49.970;9.068;2023-04-15T09:03:31;11.88;;;7.65;;
4873;SDS011;2451;49.970;9.068;2023-04-15T09:05:58;11.02;;;7.75;;
4873;SDS011;2451;49.970;9.068;2023-04-15T09:08:24;12.13;;;7.53;;
4873;SDS011;2451;49.970;9.068;2023-04-15T09:10:50;13.73;;;7.90;;
4873;SDS011;2451;49.970;9.068;2023-04-15T09:13:17;10.45;;;7.38;;
4873;SDS011;2451;49.970;9.068;2023-04-15T09:15:42;12.60;;;7.90;;
4873;SDS011;2451;49.970;9.068;2023-04-15T09:18:10;12.00;;;7.75;;
4873;SDS011;2451;49.970;9.068;2023-04-15T09:20:38;11.43;;;7.70;;
4873;SDS011;2451;49.970;9.068;2023-04-15T09:23:10;10.30;;;7.00;;
4873;SDS011;2451;49.970;9.068;2023-04-15T09:25:37;10.75;;;7.68;;
4873;SDS011;2451;49.970;9.068;2023-04-15T09:28:06;10.10;;;7.55;;
4873;SDS011;2451;49.970;9.068;2023-04-15T09:30:32;10.50;;;6.53;;
4873;SDS011;2451;49.970;9.068;2023-04-15T09:32:59;8.05;;;5.68;;
4873;SDS011;2451;49.970;9.068;2023-04-15T09:35:26;8.65;;;5.80;;
4873;SDS011;2451;49.970;9.068;2023-04-15T09:37:52;7.90;;;6.07;;
4873;SDS011;2451;49.970;9.068;2023-04-15T09:40:33;8.23;;;5.68;;
4873;SDS011;2451;49.970;9.068;2023-04-15T09:43:00;10.02;;;5.47;;
4873;SDS011;2451;49.970;9.068;2023-04-15T09:45:26;6.95;;;4.68;;
4873;SDS011;2451;49.970;9.068;2023-04-15T09:47:52;7.03;;;5.10;;
4873;SDS011;2451;49.970;9.068;2023-04-15T09:50:18;6.07;;;3.65;;
4873;SDS011;2451;49.970;9.068;2023-04-15T09:52:45;7.35;;;4.20;;
4873;SDS011;2451;49.970;9.068;2023-04-15T09:55:11;6.28;;;4.30;;
4873;SDS011;2451;49.970;9.068;2023-04-15T09:57:38;7.07;;;4.63;;
4873;SDS011;2451;49.970;9.068;2023-04-15T10:00:05;7.70;;;4.75;;
4873;SDS011;2451;49.970;9.068;2023-04-15T10:02:33;7.60;;;4.97;;
4873;SDS011;2451;49.970;9.068;2023-04-15T10:05:00;8.30;;;5.65;;
4873;SDS011;2451;49.970;9.068;2023-04-15T10:07:27;10.68;;;7.05;;
4873;SDS011;2451;49.970;9.068;2023-04-15T10:09:52;13.05;;;7.60;;
4873;SDS011;2451;49.970;9.068;2023-04-15T10:12:19;8.50;;;6.07;;
4873;SDS011;2451;49.970;9.068;2023-04-15T10:14:52;7.50;;;4.80;;
4873;SDS011;2451;49.970;9.068;2023-04-15T10:17:23;7.93;;;4.97;;
4873;SDS011;2451;49.970;9.068;2023-04-15T10:19:53;8.35;;;5.63;;
4873;SDS011;2451;49.970;9.068;2023-04-15T10:22:19;8.77;;;5.65;;
4873;SDS011;2451;49.970;9.068;2023-04-15T10:24:47;7.97;;;5.13;;
4873;SDS011;2451;49.970;9.068;2023-04-15T10:27:13;8.02;;;4.78;;
4873;SDS011;2451;49.970;9.068;2023-04-15T10:29:38;7.13;;;4.70;;
4873;SDS011;2451;49.970;9.068;2023-04-15T10:32:04;8.98;;;5.47;;
4873;SDS011;2451;49.970;9.068;2023-04-15T10:34:30;12.00;;;6.50;;
4873;SDS011;2451;49.970;9.068;2023-04-15T10:36:59;8.65;;;5.05;;
4873;SDS011;2451;49.970;9.068;2023-04-15T10:42:08;6.90;;;3.88;;
4873;SDS011;2451;49.970;9.068;2023-04-15T10:44:40;6.68;;;3.20;;
4873;SDS011;2451;49.970;9.068;2023-04-15T10:49:51;6.95;;;3.40;;
4873;SDS011;2451;49.970;9.068;2023-04-15T10:52:22;5.45;;;3.50;;
4873;SDS011;2451;49.970;9.068;2023-04-15T10:54:50;4.40;;;2.85;;
4873;SDS011;2451;49.970;9.068;2023-04-15T10:57:36;5.35;;;2.92;;
4873;SDS011;2451;49.970;9.068;2023-04-15T11:02:43;5.30;;;3.47;;
4873;SDS011;2451;49.970;9.068;2023-04-15T11:05:16;5.00;;;3.28;;
4873;SDS011;2451;49.970;9.068;2023-04-15T11:10:49;5.57;;;3.45;;
4873;SDS011;2451;49.970;9.068;2023-04-15T11:12:57;5.47;;;3.28;;
4873;SDS011;2451;49.970;9.068;2023-04-15T11:15:27;5.78;;;3.35;;
4873;SDS011;2451;49.970;9.068;2023-04-15T11:20:34;7.45;;;3.50;;
4873;SDS011;2451;49.970;9.068;2023-04-15T11:23:00;5.72;;;3.85;;
4873;SDS011;2451;49.970;9.068;2023-04-15T11:25:32;6.80;;;3.83;;
4873;SDS011;2451;49.970;9.068;2023-04-15T11:27:59;4.93;;;3.42;;
4873;SDS011;2451;49.970;9.068;2023-04-15T11:30:27;6.55;;;3.88;;
4873;SDS011;2451;49.970;9.068;2023-04-15T11:32:56;5.82;;;3.92;;
4873;SDS011;2451;49.970;9.068;2023-04-15T11:35:23;7.38;;;4.43;;
4873;SDS011;2451;49.970;9.068;2023-04-15T11:37:48;9.15;;;4.65;;
4873;SDS011;2451;49.970;9.068;2023-04-15T11:40:15;7.18;;;4.97;;
4873;SDS011;2451;49.970;9.068;2023-04-15T11:42:44;7.82;;;5.28;;
4873;SDS011;2451;49.970;9.068;2023-04-15T11:45:11;7.10;;;5.40;;
4873;SDS011;2451;49.970;9.068;2023-04-15T11:47:38;8.43;;;5.07;;
4873;SDS011;2451;49.970;9.068;2023-04-15T11:50:17;8.07;;;3.95;;
4873;SDS011;2451;49.970;9.068;2023-04-15T11:55:23;6.63;;;4.00;;
4873;SDS011;2451;49.970;9.068;2023-04-15T11:58:04;6.97;;;3.80;;
4873;SDS011;2451;49.970;9.068;2023-04-15T12:00:34;4.50;;;3.17;;
4873;SDS011;2451;49.970;9.068;2023-04-15T12:03:16;3.95;;;2.70;;
4873;SDS011;2451;49.970;9.068;2023-04-15T12:11:34;5.63;;;3.42;;
4873;SDS011;2451;49.970;9.068;2023-04-15T12:14:26;23.55;;;20.20;;
4873;SDS011;2451;49.970;9.068;2023-04-15T12:17:00;8.02;;;5.97;;
4873;SDS011;2451;49.970;9.068;2023-04-15T12:19:39;21.05;;;15.43;;
4873;SDS011;2451;49.970;9.068;2023-04-15T12:22:08;16.88;;;12.60;;
4873;SDS011;2451;49.970;9.068;2023-04-15T12:24:35;11.02;;;8.20;;
4873;SDS011;2451;49.970;9.068;2023-04-15T12:27:05;11.15;;;6.07;;
4873;SDS011;2451;49.970;9.068;2023-04-15T12:29:33;8.40;;;5.85;;
4873;SDS011;2451;49.970;9.068;2023-04-15T12:34:36;12.65;;;8.07;;
4873;SDS011;2451;49.970;9.068;2023-04-15T12:37:03;7.40;;;5.63;;
4873;SDS011;2451;49.970;9.068;2023-04-15T12:39:31;6.63;;;4.50;;
4873;SDS011;2451;49.970;9.068;2023-04-15T12:41:59;8.50;;;5.47;;
4873;SDS011;2451;49.970;9.068;2023-04-15T12:44:25;6.22;;;4.80;;
4873;SDS011;2451;49.970;9.068;2023-04-15T12:46:51;6.03;;;4.20;;
4873;SDS011;2451;49.970;9.068;2023-04-15T12:49:18;6.05;;;4.32;;
4873;SDS011;2451;49.970;9.068;2023-04-15T12:51:46;6.30;;;4.38;;
4873;SDS011;2451;49.970;9.068;2023-04-15T12:54:13;6.55;;;4.53;;
4873;SDS011;2451;49.970;9.068;2023-04-15T12:56:40;5.50;;;3.53;;
4873;SDS011;2451;49.970;9.068;2023-04-15T12:59:06;5.82;;;3.83;;
4873;SDS011;2451;49.970;9.068;2023-04-15T13:01:31;6.20;;;4.53;;
4873;SDS011;2451;49.970;9.068;2023-04-15T13:03:57;6.13;;;4.13;;
4873;SDS011;2451;49.970;9.068;2023-04-15T13:06:23;8.13;;;5.35;;
4873;SDS011;2451;49.970;9.068;2023-04-15T13:08:48;5.72;;;3.50;;
4873;SDS011;2451;49.970;9.068;2023-04-15T13:11:14;5.43;;;4.10;;
4873;SDS011;2451;49.970;9.068;2023-04-15T13:13:41;5.50;;;3.65;;
4873;SDS011;2451;49.970;9.068;2023-04-15T13:16:07;5.93;;;4.18;;
4873;SDS011;2451;49.970;9.068;2023-04-15T13:18:32;8.10;;;5.65;;
4873;SDS011;2451;49.970;9.068;2023-04-15T13:20:58;7.43;;;5.65;;
4873;SDS011;2451;49.970;9.068;2023-04-15T13:23:25;16.88;;;8.55;;
4873;SDS011;2451;49.970;9.068;2023-04-15T13:25:50;24.08;;;13.38;;
4873;SDS011;2451;49.970;9.068;2023-04-15T13:28:16;24.30;;;13.30;;
4873;SDS011;2451;49.970;9.068;2023-04-15T13:30:41;36.63;;;18.85;;
4873;SDS011;2451;49.970;9.068;2023-04-15T13:33:08;11.02;;;6.70;;
4873;SDS011;2451;49.970;9.068;2023-04-15T13:35:33;7.20;;;5.05;;
4873;SDS011;2451;49.970;9.068;2023-04-15T13:37:59;6.97;;;5.72;;
4873;SDS011;2451;49.970;9.068;2023-04-15T13:40:24;7.25;;;4.90;;
4873;SDS011;2451;49.970;9.068;2023-04-15T13:42:50;6.13;;;3.80;;
4873;SDS011;2451;49.970;9.068;2023-04-15T13:45:17;4.93;;;3.63;;
4873;SDS011;2451;49.970;9.068;2023-04-15T13:47:43;6.32;;;4.85;;
4873;SDS011;2451;49.970;9.068;2023-04-15T13:50:08;4.88;;;3.47;;
4873;SDS011;2451;49.970;9.068;2023-04-15T13:52:34;5.47;;;3.13;;
4873;SDS011;2451;49.970;9.068;2023-04-15T13:55:01;4.43;;;3.03;;
4873;SDS011;2451;49.970;9.068;2023-04-15T13:57:27;5.07;;;3.75;;
4873;SDS011;2451;49.970;9.068;2023-04-15T13:59:52;5.10;;;3.20;;
4873;SDS011;2451;49.970;9.068;2023-04-15T14:02:19;5.15;;;2.88;;
4873;SDS011;2451;49.970;9.068;2023-04-15T14:04:46;6.93;;;4.03;;
4873;SDS011;2451;49.970;9.068;2023-04-15T14:07:12;4.53;;;3.03;;
4873;SDS011;2451;49.970;9.068;2023-04-15T14:09:37;4.82;;;3.40;;
4873;SDS011;2451;49.970;9.068;2023-04-15T14:12:03;5.05;;;2.90;;
4873;SDS011;2451;49.970;9.068;2023-04-15T14:14:29;4.95;;;3.33;;
4873;SDS011;2451;49.970;9.068;2023-04-15T14:16:54;5.20;;;3.00;;
4873;SDS011;2451;49.970;9.068;2023-04-15T14:19:21;6.38;;;3.50;;
4873;SDS011;2451;49.970;9.068;2023-04-15T14:21:46;4.97;;;3.40;;
4873;SDS011;2451;49.970;9.068;2023-04-15T14:24:12;6.32;;;3.80;;
4873;SDS011;2451;49.970;9.068;2023-04-15T14:26:37;6.00;;;3.83;;
4873;SDS011;2451;49.970;9.068;2023-04-15T14:29:03;6.20;;;4.18;;
4873;SDS011;2451;49.970;9.068;2023-04-15T14:31:29;5.43;;;3.70;;
4873;SDS011;2451;49.970;9.068;2023-04-15T14:33:54;8.02;;;3.75;;
4873;SDS011;2451;49.970;9.068;2023-04-15T14:36:20;5.93;;;3.50;;
4873;SDS011;2451;49.970;9.068;2023-04-15T14:38:45;5.70;;;3.63;;
4873;SDS011;2451;49.970;9.068;2023-04-15T14:41:11;7.47;;;4.00;;
4873;SDS011;2451;49.970;9.068;2023-04-15T14:43:36;4.93;;;2.88;;
4873;SDS011;2451;49.970;9.068;2023-04-15T14:46:02;6.13;;;2.97;;
4873;SDS011;2451;49.970;9.068;2023-04-15T14:48:28;4.70;;;2.95;;
4873;SDS011;2451;49.970;9.068;2023-04-15T14:50:55;4.82;;;3.40;;
4873;SDS011;2451;49.970;9.068;2023-04-15T14:53:21;5.35;;;3.38;;
4873;SDS011;2451;49.970;9.068;2023-04-15T14:55:46;5.88;;;3.20;;
4873;SDS011;2451;49.970;9.068;2023-04-15T14:58:12;4.15;;;2.78;;
4873;SDS011;2451;49.970;9.068;2023-04-15T15:00:38;5.28;;;3.05;;
4873;SDS011;2451;49.970;9.068;2023-04-15T15:03:05;8.20;;;3.97;;
4873;SDS011;2451;49.970;9.068;2023-04-15T15:05:37;31.83;;;12.05;;
4873;SDS011;2451;49.970;9.068;2023-04-15T15:08:06;10.60;;;4.80;;
4873;SDS011;2451;49.970;9.068;2023-04-15T15:10:33;9.13;;;5.05;;
4873;SDS011;2451;49.970;9.068;2023-04-15T15:13:01;5.68;;;2.80;;
4873;SDS011;2451;49.970;9.068;2023-04-15T15:15:31;4.70;;;2.72;;
4873;SDS011;2451;49.970;9.068;2023-04-15T15:17:57;7.07;;;4.47;;
4873;SDS011;2451;49.970;9.068;2023-04-15T15:20:23;9.48;;;4.82;;
4873;SDS011;2451;49.970;9.068;2023-04-15T15:22:48;11.88;;;6.68;;
4873;SDS011;2451;49.970;9.068;2023-04-15T15:25:14;23.23;;;11.00;;
4873;SDS011;2451;49.970;9.068;2023-04-15T15:27:40;9.30;;;5.20;;